Sidney Richland Municipal Airport
KSDY : now visible

Airfield :











YOU CAN JOIN US ON...

 
LOGIN :

Register | Disclaimer

   EN    FR    IT 

 









Legend :    VFR   Marginal VFR   IFR   Intensive IFR   Very Intensive IFR
Visi :
Ceiling :
>= 8 km
>= 3000ft
5 to 8 km
1000 to 3000 ft
1500m to 5 km
500 to 1000 ft
800 to 1500m
200 to 500 ft
< 800m
< 200 ft
Symbols :   Thunderstorms  Fog  Heavy snow  Heavy precipitations  Wind > 20 kt






- Airport Elevation : 1985 ft


KSDY - Sidney Richland Municipal

CURRENT METAR :
  • 310756Z AUTO 15009KT 10SM CLR 14/08 A3001 RMK AO2 SLP553 T01440083

EXPIRED METARs :
  • 310656Z AUTO 14006KT 10SM CLR 15/08 A3004 RMK AO2 SLP563 T01500083 402440061
  • 310556Z AUTO 14009KT 10SM CLR 16/08 A3005 RMK AO2 SLP567 T01610083 10239 20161 58004

TAF KSDY
Valid from the 31 at 06:00 until the 01 at 06:00 UTC


310532Z 3106/0106 14007KT P6SM FEW200
FM310700 15007KT P6SM SCT250 WS020/15040KT
FM010000 13009KT P6SM VCSH FEW120
KZLC FIR / North America



MET'MAP, your aeronautical weather chart ! - Copyright ORBIFLY December 2007 - Disclaimer

ORBIFLY MET'MAP TEAM :

Programming & Development : Alexandra Zaïnal
Concept & original design : Baudouin d'Aumeries
Assistance for programming : Marc-Olivier Méhu
Technical & hardware support : Manuel Goepfert

Contact : metmap@orbifly.com




SOURCES & CREDITS :

   NOAA       Earth
Advisory